首页
METAR-TAF:

METAR-TAF

机场 :

Tyndall Air Force Base

Panama City, 佛罗里达州, 美国

纬度: 30-04N, 经度: 085-35W, 海拔: 5米

当前天气观测

该预报发布于31分钟前的18:56 UTC
风速13节,风向东北,有时为21节阵风
温度 20°C
湿度 78%
气压 1019 hPa
能見度: 16.1公里
散云层高于1600英尺
多云层高于5500英尺
阴天层高于8000英尺

METAR: KPAM 201856Z AUTO 05013G21KT 10SM SCT016 BKN055 OVC080 20/16 A3008 RMK AO2 SLP189 T01990159 $

时间: 14:27 (19:27 UTC)

预报

该预报发布于21小时和37分钟前的21:50 UTC
预报有效从18日的 21点(UTC)到 20日的 01点(UTC)
风速9节,风向西转西北
能见度10公里或以上
少量云层高于1500英尺
散云层高于15000英尺
成为
从 18日的 21点(UTC)到 18日的 22点(UTC)
风速9节,风向
能見度: 1901
散云层高于3500英尺
成为
从 19日的 06点(UTC)到 19日的 07点(UTC)
风速12节,风向东转东北,有时为18节阵风
能见度10公里或以上
散云层高于3000英尺
成为
从 19日的 20点(UTC)到 19日的 21点(UTC)
风速15节,风向东北,有时为25节阵风
能見度: 2111
多云层高于2000英尺

TAF: KPAM 182150Z 1821/2001 30009KT 9999 FEW015 SCT150 QNH2984INS BECMG 1821/1822 32009KT 9999 SCT035 QNH2990INS WND 36009KT AFT 1901 BECMG 1906/1907 06012G18KT 9999 SCT030 QNH2990INS BECMG 1920/1921 05015G25KT 9999 BKN020 QNH2996INS TX32/1920Z TN23/1911Z LAST NO AMDS AFT 1822 NEXT 2111

超过4000个机场的气象观测和天气预报(METAR&TAF报告)。

可查询的气象台以黄色和红色小点在地图上表示。

将鼠标移到小点上方,可查看气象台名称。

然后点击查看天气观测和预报。

如需切换地图:点击带黑十字的绿色按钮放大地图;点击带横线的绿色按钮缩小地图;或者点击绿色箭头查看邻近地区的地图。


METAR-TAF: